Aérodrome :
LOGIN :

S'inscrire | Disclaimer

   EN    FR    IT 

 










Légende :    VFR   VFR Marginal   IFR   IFR Intensif   IFR Très Intensif
Visi : 
Plafond : 
>= 8 km
>= 3000ft
5 à 8 km
1000 à 3000 ft
1500m à 5 km
500 à 1000 ft
800 à 1500m
200 à 500 ft
< 800m
< 200 ft
Symboles :   Orages  Brouillard  Fortes neiges  Fortes précipitations  Vent > 20 kt
SIGMETs :   Divers  Orages  Givrage  Turbulence  Onde Orograph.  Cendres Volcan.






- Altitude de l'aérodrome : 267 ft


EGDR - Culdrose Navy

DERNIER METAR :
  • 271321Z 33012G24KT 9999 SCT030 SCT035 08/01 Q1010 NOSIG RMK BLU BLU

METARs EXPIRÉS :
  • 271250Z 33014KT 9999 SCT030 SCT035 08/03 Q1010 NOSIG RMK BLU BLU
  • 271222Z 34019KT 9999 SCT030 SCT035 08/02 Q1009 NOSIG RMK BLU BLU
  • 271150Z 33023KT 9999 SCT030 SCT035 08/03 Q1008 NOSIG RMK BLU BLU
  • 271122Z 33018G28KT 9999 SCT030 SCT035 07/02 Q1007 NOSIG RMK BLU BLU
  • 271050Z 34018G28KT 9999 SCT030 SCT035 07/02 Q1006 NOSIG RMK BLU BLU

TAF TAF EGDR
Valide du 27 à 12h jusqu'au 27 à 21h UTC


271030Z 2712/2721 34015G25KT 9999 SCT030
BECMG 2715/2717 33010KT



MET'MAP, la Météo Aéronautique d'un coup d'oeil ! - Copyright ORBIFLY Décembre 2007 - Disclaimer

ORBIFLY MET'MAP TEAM :

Programmation & Développement : Alexandra Zaïnal
Sur une idée originale de : Baudouin d'Aumeries
Assistance à la programmation : Marc-Olivier Méhu
Soutien technique & logistique : Manuel Goepfert

Contact : metmap@orbifly.com




SOURCES & CREDITS :

   NOAA